Nave Cetus — D5DB7 — position and weather

sailwx.info

Track history (hours):
 
Tides and Currents Weather Stations Pressure Air Temp Water Temp Dewpoint Dewpoint Depression Visibility Wind Speed Wind Dir Waves Ship Positions

Nave Cetus

Last reported at 2017-Nov-14 12:33 UTC. Time now 2017-Nov-18 21:43 UTC.
Position N 36°34' W 029°28'.

Length 228 m; draft 12.6 m.

Type: Ship (hazmat cat B). MMSI: 636015834.

Date/timePositionNaut miles runAvg speedWind from/ knotsBaromVisibWave heightAir tempDewpointWater temp
2017-Nov-14 12:33N 36°34' W 029°28'112.7
2017-Nov-14 12:28N 36°35' W 029°27'1012.6
2017-Nov-14 11:39N 36°38' W 029°15'212.4
2017-Nov-14 11:30N 36°38' W 029°13'712.3
2017-Nov-14 10:58N 36°40' W 029°05'612.0
2017-Nov-14 10:26N 36°42' W 028°57'4112.1
2017-Nov-14 07:02N 36°53' W 028°08'1112.1
2017-Nov-14 06:08N 36°55' W 027°54'1712.3
2017-Nov-14 04:43N 36°60' W 027°33'612.3
2017-Nov-14 04:15N 37°01' W 027°27'312.4
2017-Nov-14 04:00N 37°02' W 027°23'612.1
2017-Nov-14 03:30N 37°04' W 027°15'611.9
2017-Nov-14 03:00N 37°05' W 027°08'612.0
2017-Nov-14 02:31N 37°07' W 027°01'611.9
2017-Nov-14 02:01N 37°08' W 026°54'611.7
2017-Nov-14 01:31N 37°10' W 026°47'611.8
2017-Nov-14 01:00N 37°11' W 026°40'611.9
2017-Nov-14 00:30N 37°13' W 026°32'612.2
2017-Nov-14 00:00N 37°14' W 026°25'612.1
2017-Nov-13 23:31N 37°16' W 026°18'612.1
2017-Nov-13 23:00N 37°17' W 026°10'611.9
2017-Nov-13 22:30N 37°19' W 026°03'612.0
2017-Nov-13 22:01N 37°20' W 025°56'58412.9
2017-Nov-12 00:47N 36°54' W 013°44'713.1
2017-Nov-12 00:16N 36°53' W 013°36'2313.0
2017-Nov-11 22:28N 36°50' W 013°07'5213.0
2017-Nov-11 18:30N 36°43' W 012°03'912.9
2017-Nov-11 17:46N 36°41' W 011°51'412.9
2017-Nov-11 17:29N 36°41' W 011°47'713.4
2017-Nov-11 17:00N 36°39' W 011°39'3213.1
2017-Nov-11 14:33N 36°35' W 010°59'113.1
2017-Nov-11 14:30N 36°34' W 010°59'612.9
2017-Nov-11 14:01N 36°33' W 010°51'713.0
2017-Nov-11 13:30N 36°32' W 010°43'612.9
2017-Nov-11 13:00N 36°31' W 010°35'712.9
2017-Nov-11 12:30N 36°30' W 010°27'2912.7
2017-Nov-11 10:11N 36°25' W 009°51'314.5
2017-Nov-11 10:00N 36°24' W 009°48'714.4
2017-Nov-11 09:29N 36°23' W 009°39'713.7
2017-Nov-11 08:59N 36°22' W 009°30'713.0
2017-Nov-11 08:29N 36°20' W 009°22'18813.0
2017-Nov-10 17:58N 35°59' W 005°31'612.2
2017-Nov-10 17:29N 36°01' W 005°24'511.4
2017-Nov-10 17:00N 36°05' W 005°19'1 1.6
2017-Nov-10 16:04N 36°06' W 005°18'0 4.0
2017-Nov-10 16:00N 36°06' W 005°18'4 8.4
2017-Nov-10 15:30N 36°06' W 005°13'  
2017-Nov-07 14:30N 36°33' E 013°44'1713.0
2017-Nov-07 13:12N 36°27' E 014°04'312.7
2017-Nov-07 12:59N 36°26' E 014°07'612.9
2017-Nov-07 12:30N 36°24' E 014°14'713.0
2017-Nov-07 11:59N 36°22' E 014°22'612.2
2017-Nov-07 11:30N 36°19' E 014°29'612.9
2017-Nov-07 11:00N 36°14' E 014°33'612.8
2017-Nov-07 10:29N 36°08' E 014°37'612.8
2017-Nov-07 10:00N 36°03' E 014°42'612.8
2017-Nov-07 09:30N 35°58' E 014°46'4 7.4
2017-Nov-07 09:00N 35°54' E 014°48'0 0.3
2017-Nov-07 08:29N 35°54' E 014°48'0 0.1
2017-Nov-07 07:56N 35°54' E 014°48'0 0.0
2017-Nov-07 07:29N 35°54' E 014°48'0 0.0
2017-Nov-07 06:50N 35°54' E 014°48'0 0.0
2017-Nov-07 06:29N 35°54' E 014°48'0 0.0
2017-Nov-07 05:59N 35°54' E 014°48'0 0.0
2017-Nov-07 05:26N 35°54' E 014°48'0 0.0
2017-Nov-07 04:59N 35°54' E 014°48'0 0.0
2017-Nov-07 04:29N 35°54' E 014°48'0 0.0
2017-Nov-07 03:56N 35°54' E 014°48'0 0.0
2017-Nov-07 03:26N 35°54' E 014°48'0 0.0
2017-Nov-07 02:56N 35°54' E 014°48'0 0.0
2017-Nov-07 02:29N 35°54' E 014°48'0 0.0
2017-Nov-07 01:59N 35°54' E 014°48'0 0.0
2017-Nov-07 01:29N 35°54' E 014°48'0 0.0
2017-Nov-07 00:59N 35°54' E 014°48'0 0.0
2017-Nov-07 00:29N 35°54' E 014°48'0 0.0
2017-Nov-06 23:59N 35°54' E 014°48'0 0.0
2017-Nov-06 23:29N 35°54' E 014°48'0 0.0
2017-Nov-06 22:59N 35°54' E 014°48'0 0.0
2017-Nov-06 22:23N 35°54' E 014°48'0 0.0
2017-Nov-06 21:53N 35°54' E 014°48'0 0.0
2017-Nov-06 21:08N 35°54' E 014°48'0 0.0
2017-Nov-06 20:56N 35°54' E 014°48'0 0.0
2017-Nov-06 20:29N 35°54' E 014°48'16 0.9
2017-Nov-06 02:30N 36°08' E 014°38'0 0.7
2017-Nov-06 02:00N 36°08' E 014°39'0 0.6
2017-Nov-06 01:30N 36°08' E 014°39'0 0.6
2017-Nov-06 01:00N 36°08' E 014°39'0 0.5
2017-Nov-06 00:30N 36°08' E 014°40'0 0.5
2017-Nov-06 00:00N 36°08' E 014°40'0 0.5
2017-Nov-05 23:30N 36°08' E 014°40'0 0.5
2017-Nov-05 23:00N 36°08' E 014°41'0 0.6
2017-Nov-05 22:30N 36°08' E 014°41'0 0.6
2017-Nov-05 22:00N 36°08' E 014°41'0 0.6
2017-Nov-05 21:29N 36°08' E 014°42'0 0.6
2017-Nov-05 20:55N 36°08' E 014°42'0 0.6
2017-Nov-05 20:29N 36°08' E 014°42'0 0.6
2017-Nov-05 20:01N 36°08' E 014°43'0 0.7
2017-Nov-05 19:30N 36°07' E 014°43'0 0.7
2017-Nov-05 18:56N 36°07' E 014°44'0 0.7
2017-Nov-05 18:29N 36°07' E 014°44'0 0.7
2017-Nov-05 18:00N 36°07' E 014°45'0 0.7
2017-Nov-05 17:21N 36°07' E 014°45'0 0.7
2017-Nov-05 16:48N 36°07' E 014°45'0 0.7
2017-Nov-05 16:30N 36°07' E 014°46'0 0.6
2017-Nov-05 16:00N 36°06' E 014°46'0 0.6
2017-Nov-05 15:28N 36°06' E 014°46'0 0.5
2017-Nov-05 14:57N 36°06' E 014°46'0 0.4
2017-Nov-05 14:14N 36°06' E 014°46'0 0.4
2017-Nov-05 13:56N 36°05' E 014°46'0 0.3
2017-Nov-05 13:29N 36°05' E 014°46'0 0.3
2017-Nov-05 12:47N 36°05' E 014°46'0 0.1
2017-Nov-05 12:20N 36°05' E 014°46'0 0.9
2017-Nov-05 11:59N 36°05' E 014°47'1 3.1
2017-Nov-05 11:30N 36°06' E 014°45'2 4.4
2017-Nov-05 10:58N 36°07' E 014°42'2 3.8
2017-Nov-05 10:25N 36°07' E 014°40'2 4.2
2017-Nov-05 09:57N 36°05' E 014°40'2 4.3
2017-Nov-05 09:30N 36°05' E 014°43'2 4.4
2017-Nov-05 09:00N 36°05' E 014°45'2 4.6
2017-Nov-05 08:29N 36°05' E 014°48'2 4.0
2017-Nov-05 08:00N 36°05' E 014°51'1 1.8
2017-Nov-05 07:19N 36°06' E 014°51'1 0.9
2017-Nov-05 05:56N 36°07' E 014°51'2 4.4
2017-Nov-05 05:30N 36°08' E 014°49'2 4.4
2017-Nov-05 05:00N 36°10' E 014°47'1 0.4
2017-Nov-05 03:48N 36°10' E 014°46'7 0.8
2017-Nov-04 18:59N 36°03' E 014°49'1 1.3
2017-Nov-04 18:30N 36°03' E 014°48'1 1.1
2017-Nov-04 17:59N 36°03' E 014°48'0 0.5
2017-Nov-04 17:30N 36°03' E 014°48'0 0.5
2017-Nov-04 16:51N 36°04' E 014°48'1 0.6
2017-Nov-04 15:46N 36°04' E 014°49'0 0.5
2017-Nov-04 15:17N 36°04' E 014°49'0 0.5
2017-Nov-04 15:00N 36°04' E 014°49'0 0.6
2017-Nov-04 14:30N 36°05' E 014°49'3 2.8
2017-Nov-04 13:36N 36°02' E 014°51'1 5.0
2017-Nov-04 13:29N 36°02' E 014°51'3 5.1
2017-Nov-04 13:00N 35°59' E 014°52'  
Track history (hours):
 
Tides and Currents Weather Stations Pressure Air Temp Water Temp Dewpoint Dewpoint Depression Visibility Wind Speed Wind Dir Waves Ship Positions

Nave Cetus

Last reported at 2017-Nov-14 12:33 UTC. Time now 2017-Nov-18 21:43 UTC.
Position N 36°34' W 029°28'.

Length 228 m; draft 12.6 m.

Type: Ship (hazmat cat B). MMSI: 636015834.

Date/timePositionNaut miles runAvg speedWind from/ knotsBaromVisibWave heightAir tempDewpointWater temp
2017-Nov-14 12:33N 36°34' W 029°28'112.7
2017-Nov-14 12:28N 36°35' W 029°27'1012.6
2017-Nov-14 11:39N 36°38' W 029°15'212.4
2017-Nov-14 11:30N 36°38' W 029°13'712.3
2017-Nov-14 10:58N 36°40' W 029°05'612.0
2017-Nov-14 10:26N 36°42' W 028°57'4112.1
2017-Nov-14 07:02N 36°53' W 028°08'1112.1
2017-Nov-14 06:08N 36°55' W 027°54'1712.3
2017-Nov-14 04:43N 36°60' W 027°33'612.3
2017-Nov-14 04:15N 37°01' W 027°27'312.4
2017-Nov-14 04:00N 37°02' W 027°23'612.1
2017-Nov-14 03:30N 37°04' W 027°15'611.9
2017-Nov-14 03:00N 37°05' W 027°08'612.0
2017-Nov-14 02:31N 37°07' W 027°01'611.9
2017-Nov-14 02:01N 37°08' W 026°54'611.7
2017-Nov-14 01:31N 37°10' W 026°47'611.8
2017-Nov-14 01:00N 37°11' W 026°40'611.9
2017-Nov-14 00:30N 37°13' W 026°32'612.2
2017-Nov-14 00:00N 37°14' W 026°25'612.1
2017-Nov-13 23:31N 37°16' W 026°18'612.1
2017-Nov-13 23:00N 37°17' W 026°10'611.9
2017-Nov-13 22:30N 37°19' W 026°03'612.0
2017-Nov-13 22:01N 37°20' W 025°56'58412.9
2017-Nov-12 00:47N 36°54' W 013°44'713.1
2017-Nov-12 00:16N 36°53' W 013°36'2313.0
2017-Nov-11 22:28N 36°50' W 013°07'5213.0
2017-Nov-11 18:30N 36°43' W 012°03'912.9
2017-Nov-11 17:46N 36°41' W 011°51'412.9
2017-Nov-11 17:29N 36°41' W 011°47'713.4
2017-Nov-11 17:00N 36°39' W 011°39'3213.1
2017-Nov-11 14:33N 36°35' W 010°59'113.1
2017-Nov-11 14:30N 36°34' W 010°59'612.9
2017-Nov-11 14:01N 36°33' W 010°51'713.0
2017-Nov-11 13:30N 36°32' W 010°43'612.9
2017-Nov-11 13:00N 36°31' W 010°35'712.9
2017-Nov-11 12:30N 36°30' W 010°27'2912.7
2017-Nov-11 10:11N 36°25' W 009°51'314.5
2017-Nov-11 10:00N 36°24' W 009°48'714.4
2017-Nov-11 09:29N 36°23' W 009°39'713.7
2017-Nov-11 08:59N 36°22' W 009°30'713.0
2017-Nov-11 08:29N 36°20' W 009°22'18813.0
2017-Nov-10 17:58N 35°59' W 005°31'612.2
2017-Nov-10 17:29N 36°01' W 005°24'511.4
2017-Nov-10 17:00N 36°05' W 005°19'1 1.6
2017-Nov-10 16:04N 36°06' W 005°18'0 4.0
2017-Nov-10 16:00N 36°06' W 005°18'4 8.4
2017-Nov-10 15:30N 36°06' W 005°13'  
2017-Nov-07 14:30N 36°33' E 013°44'1713.0
2017-Nov-07 13:12N 36°27' E 014°04'312.7
2017-Nov-07 12:59N 36°26' E 014°07'612.9
2017-Nov-07 12:30N 36°24' E 014°14'713.0
2017-Nov-07 11:59N 36°22' E 014°22'612.2
2017-Nov-07 11:30N 36°19' E 014°29'612.9
2017-Nov-07 11:00N 36°14' E 014°33'612.8
2017-Nov-07 10:29N 36°08' E 014°37'612.8
2017-Nov-07 10:00N 36°03' E 014°42'612.8
2017-Nov-07 09:30N 35°58' E 014°46'4 7.4
2017-Nov-07 09:00N 35°54' E 014°48'0 0.3
2017-Nov-07 08:29N 35°54' E 014°48'0 0.1
2017-Nov-07 07:56N 35°54' E 014°48'0 0.0
2017-Nov-07 07:29N 35°54' E 014°48'0 0.0
2017-Nov-07 06:50N 35°54' E 014°48'0 0.0
2017-Nov-07 06:29N 35°54' E 014°48'0 0.0
2017-Nov-07 05:59N 35°54' E 014°48'0 0.0
2017-Nov-07 05:26N 35°54' E 014°48'0 0.0
2017-Nov-07 04:59N 35°54' E 014°48'0 0.0
2017-Nov-07 04:29N 35°54' E 014°48'0 0.0
2017-Nov-07 03:56N 35°54' E 014°48'0 0.0
2017-Nov-07 03:26N 35°54' E 014°48'0 0.0
2017-Nov-07 02:56N 35°54' E 014°48'0 0.0
2017-Nov-07 02:29N 35°54' E 014°48'0 0.0
2017-Nov-07 01:59N 35°54' E 014°48'0 0.0
2017-Nov-07 01:29N 35°54' E 014°48'0 0.0
2017-Nov-07 00:59N 35°54' E 014°48'0 0.0
2017-Nov-07 00:29N 35°54' E 014°48'0 0.0
2017-Nov-06 23:59N 35°54' E 014°48'0 0.0
2017-Nov-06 23:29N 35°54' E 014°48'0 0.0
2017-Nov-06 22:59N 35°54' E 014°48'0 0.0
2017-Nov-06 22:23N 35°54' E 014°48'0 0.0
2017-Nov-06 21:53N 35°54' E 014°48'0 0.0
2017-Nov-06 21:08N 35°54' E 014°48'0 0.0
2017-Nov-06 20:56N 35°54' E 014°48'0 0.0
2017-Nov-06 20:29N 35°54' E 014°48'16 0.9
2017-Nov-06 02:30N 36°08' E 014°38'0 0.7
2017-Nov-06 02:00N 36°08' E 014°39'0 0.6
2017-Nov-06 01:30N 36°08' E 014°39'0 0.6
2017-Nov-06 01:00N 36°08' E 014°39'0 0.5
2017-Nov-06 00:30N 36°08' E 014°40'0 0.5
2017-Nov-06 00:00N 36°08' E 014°40'0 0.5
2017-Nov-05 23:30N 36°08' E 014°40'0 0.5
2017-Nov-05 23:00N 36°08' E 014°41'0 0.6
2017-Nov-05 22:30N 36°08' E 014°41'0 0.6
2017-Nov-05 22:00N 36°08' E 014°41'0 0.6
2017-Nov-05 21:29N 36°08' E 014°42'0 0.6
2017-Nov-05 20:55N 36°08' E 014°42'0 0.6
2017-Nov-05 20:29N 36°08' E 014°42'0 0.6
2017-Nov-05 20:01N 36°08' E 014°43'0 0.7
2017-Nov-05 19:30N 36°07' E 014°43'0 0.7
2017-Nov-05 18:56N 36°07' E 014°44'0 0.7
2017-Nov-05 18:29N 36°07' E 014°44'0 0.7
2017-Nov-05 18:00N 36°07' E 014°45'0 0.7
2017-Nov-05 17:21N 36°07' E 014°45'0 0.7
2017-Nov-05 16:48N 36°07' E 014°45'0 0.7
2017-Nov-05 16:30N 36°07' E 014°46'0 0.6
2017-Nov-05 16:00N 36°06' E 014°46'0 0.6
2017-Nov-05 15:28N 36°06' E 014°46'0 0.5
2017-Nov-05 14:57N 36°06' E 014°46'0 0.4
2017-Nov-05 14:14N 36°06' E 014°46'0 0.4
2017-Nov-05 13:56N 36°05' E 014°46'0 0.3
2017-Nov-05 13:29N 36°05' E 014°46'0 0.3
2017-Nov-05 12:47N 36°05' E 014°46'0 0.1
2017-Nov-05 12:20N 36°05' E 014°46'0 0.9
2017-Nov-05 11:59N 36°05' E 014°47'1 3.1
2017-Nov-05 11:30N 36°06' E 014°45'2 4.4
2017-Nov-05 10:58N 36°07' E 014°42'2 3.8
2017-Nov-05 10:25N 36°07' E 014°40'2 4.2
2017-Nov-05 09:57N 36°05' E 014°40'2 4.3
2017-Nov-05 09:30N 36°05' E 014°43'2 4.4
2017-Nov-05 09:00N 36°05' E 014°45'2 4.6
2017-Nov-05 08:29N 36°05' E 014°48'2 4.0
2017-Nov-05 08:00N 36°05' E 014°51'1 1.8
2017-Nov-05 07:19N 36°06' E 014°51'1 0.9
2017-Nov-05 05:56N 36°07' E 014°51'2 4.4
2017-Nov-05 05:30N 36°08' E 014°49'2 4.4
2017-Nov-05 05:00N 36°10' E 014°47'1 0.4
2017-Nov-05 03:48N 36°10' E 014°46'7 0.8
2017-Nov-04 18:59N 36°03' E 014°49'1 1.3
2017-Nov-04 18:30N 36°03' E 014°48'1 1.1
2017-Nov-04 17:59N 36°03' E 014°48'0 0.5
2017-Nov-04 17:30N 36°03' E 014°48'0 0.5
2017-Nov-04 16:51N 36°04' E 014°48'1 0.6
2017-Nov-04 15:46N 36°04' E 014°49'0 0.5
2017-Nov-04 15:17N 36°04' E 014°49'0 0.5
2017-Nov-04 15:00N 36°04' E 014°49'0 0.6
2017-Nov-04 14:30N 36°05' E 014°49'3 2.8
2017-Nov-04 13:36N 36°02' E 014°51'1 5.0
2017-Nov-04 13:29N 36°02' E 014°51'3 5.1
2017-Nov-04 13:00N 35°59' E 014°52'  

Dump ship's entire track history